sensor_id;sensor_type;location;lat;lon;timestamp;temperature;humidity
8664;DHT22;4369;47.842;13.096;2022-07-22T00:00:08;20.90;99.90
8664;DHT22;4369;47.842;13.096;2022-07-22T00:02:35;20.80;99.90
8664;DHT22;4369;47.842;13.096;2022-07-22T00:05:04;20.70;99.90
8664;DHT22;4369;47.842;13.096;2022-07-22T00:07:31;20.60;99.90
8664;DHT22;4369;47.842;13.096;2022-07-22T00:09:58;20.60;99.90
8664;DHT22;4369;47.842;13.096;2022-07-22T00:12:25;20.60;99.90
8664;DHT22;4369;47.842;13.096;2022-07-22T00:14:52;20.60;99.90
8664;DHT22;4369;47.842;13.096;2022-07-22T00:17:19;20.60;99.90
8664;DHT22;4369;47.842;13.096;2022-07-22T00:19:45;20.50;99.90
8664;DHT22;4369;47.842;13.096;2022-07-22T00:22:14;20.40;99.90
8664;DHT22;4369;47.842;13.096;2022-07-22T00:24:41;20.40;99.90
8664;DHT22;4369;47.842;13.096;2022-07-22T00:27:07;20.30;99.90
8664;DHT22;4369;47.842;13.096;2022-07-22T00:29:34;20.30;99.90
8664;DHT22;4369;47.842;13.096;2022-07-22T00:32:01;20.20;99.90
8664;DHT22;4369;47.842;13.096;2022-07-22T00:34:28;20.20;99.90
8664;DHT22;4369;47.842;13.096;2022-07-22T00:36:55;20.30;99.90
8664;DHT22;4369;47.842;13.096;2022-07-22T00:39:23;20.30;99.90
8664;DHT22;4369;47.842;13.096;2022-07-22T00:41:50;20.30;99.90
8664;DHT22;4369;47.842;13.096;2022-07-22T00:44:17;20.20;99.90
8664;DHT22;4369;47.842;13.096;2022-07-22T00:46:43;20.10;99.90
8664;DHT22;4369;47.842;13.096;2022-07-22T00:49:10;20.10;99.90
8664;DHT22;4369;47.842;13.096;2022-07-22T00:51:37;20.00;99.90
8664;DHT22;4369;47.842;13.096;2022-07-22T00:54:05;20.00;99.90
8664;DHT22;4369;47.842;13.096;2022-07-22T00:56:33;20.00;99.90
8664;DHT22;4369;47.842;13.096;2022-07-22T00:59:05;19.90;99.90
8664;DHT22;4369;47.842;13.096;2022-07-22T01:01:32;19.90;99.90
8664;DHT22;4369;47.842;13.096;2022-07-22T01:03:59;19.90;99.90
8664;DHT22;4369;47.842;13.096;2022-07-22T01:06:26;19.90;99.90
8664;DHT22;4369;47.842;13.096;2022-07-22T01:08:54;19.90;99.90
8664;DHT22;4369;47.842;13.096;2022-07-22T01:11:21;19.80;99.90
8664;DHT22;4369;47.842;13.096;2022-07-22T01:13:50;19.90;99.90
8664;DHT22;4369;47.842;13.096;2022-07-22T01:16:18;19.90;99.90
8664;DHT22;4369;47.842;13.096;2022-07-22T01:18:46;19.90;99.90
8664;DHT22;4369;47.842;13.096;2022-07-22T01:21:15;19.80;99.90
8664;DHT22;4369;47.842;13.096;2022-07-22T01:23:42;19.80;99.90
8664;DHT22;4369;47.842;13.096;2022-07-22T01:26:09;19.70;99.90
8664;DHT22;4369;47.842;13.096;2022-07-22T01:28:36;19.70;99.90
8664;DHT22;4369;47.842;13.096;2022-07-22T01:31:03;19.70;99.90
8664;DHT22;4369;47.842;13.096;2022-07-22T01:33:30;19.70;99.90
8664;DHT22;4369;47.842;13.096;2022-07-22T01:35:57;19.70;99.90
8664;DHT22;4369;47.842;13.096;2022-07-22T01:38:25;19.60;99.90
8664;DHT22;4369;47.842;13.096;2022-07-22T01:40:52;19.60;99.90
8664;DHT22;4369;47.842;13.096;2022-07-22T01:43:19;19.50;99.90
8664;DHT22;4369;47.842;13.096;2022-07-22T01:45:49;19.60;99.90
8664;DHT22;4369;47.842;13.096;2022-07-22T01:48:17;19.60;99.90
8664;DHT22;4369;47.842;13.096;2022-07-22T01:50:44;19.60;99.90
8664;DHT22;4369;47.842;13.096;2022-07-22T01:53:11;19.50;99.90
8664;DHT22;4369;47.842;13.096;2022-07-22T01:55:40;19.50;99.90
8664;DHT22;4369;47.842;13.096;2022-07-22T01:58:07;19.40;99.90
8664;DHT22;4369;47.842;13.096;2022-07-22T02:00:34;19.50;99.90
8664;DHT22;4369;47.842;13.096;2022-07-22T02:03:01;19.50;99.90
8664;DHT22;4369;47.842;13.096;2022-07-22T02:05:53;19.50;99.90
8664;DHT22;4369;47.842;13.096;2022-07-22T02:08:20;19.40;99.90
8664;DHT22;4369;47.842;13.096;2022-07-22T02:10:48;19.40;99.90
8664;DHT22;4369;47.842;13.096;2022-07-22T02:13:15;19.40;99.90
8664;DHT22;4369;47.842;13.096;2022-07-22T02:15:42;19.40;99.90
8664;DHT22;4369;47.842;13.096;2022-07-22T02:18:10;19.20;99.90
8664;DHT22;4369;47.842;13.096;2022-07-22T02:20:37;19.10;99.90
8664;DHT22;4369;47.842;13.096;2022-07-22T02:23:05;19.10;99.90
8664;DHT22;4369;47.842;13.096;2022-07-22T02:25:33;19.10;99.90
8664;DHT22;4369;47.842;13.096;2022-07-22T02:28:01;19.10;99.90
8664;DHT22;4369;47.842;13.096;2022-07-22T02:30:28;19.10;99.90
8664;DHT22;4369;47.842;13.096;2022-07-22T02:32:56;19.10;99.90
8664;DHT22;4369;47.842;13.096;2022-07-22T02:35:23;19.00;99.90
8664;DHT22;4369;47.842;13.096;2022-07-22T02:37:50;19.10;99.90
8664;DHT22;4369;47.842;13.096;2022-07-22T02:40:18;19.10;99.90
8664;DHT22;4369;47.842;13.096;2022-07-22T02:42:45;19.10;99.90
8664;DHT22;4369;47.842;13.096;2022-07-22T02:45:13;19.10;99.90
8664;DHT22;4369;47.842;13.096;2022-07-22T02:47:48;19.10;99.90
8664;DHT22;4369;47.842;13.096;2022-07-22T02:50:15;19.20;99.90
8664;DHT22;4369;47.842;13.096;2022-07-22T02:52:42;19.10;99.90
8664;DHT22;4369;47.842;13.096;2022-07-22T02:55:09;19.00;99.90
8664;DHT22;4369;47.842;13.096;2022-07-22T02:57:37;19.00;99.90
8664;DHT22;4369;47.842;13.096;2022-07-22T03:00:05;18.90;99.90
8664;DHT22;4369;47.842;13.096;2022-07-22T03:02:34;18.90;99.90
8664;DHT22;4369;47.842;13.096;2022-07-22T03:05:02;18.90;99.90
8664;DHT22;4369;47.842;13.096;2022-07-22T03:07:28;18.90;99.90
8664;DHT22;4369;47.842;13.096;2022-07-22T03:09:55;18.90;99.90
8664;DHT22;4369;47.842;13.096;2022-07-22T03:12:22;18.90;99.90
8664;DHT22;4369;47.842;13.096;2022-07-22T03:14:49;18.90;99.90
8664;DHT22;4369;47.842;13.096;2022-07-22T03:17:16;18.90;99.90
8664;DHT22;4369;47.842;13.096;2022-07-22T03:19:44;18.80;99.90
8664;DHT22;4369;47.842;13.096;2022-07-22T03:22:11;18.70;99.90
8664;DHT22;4369;47.842;13.096;2022-07-22T03:24:38;18.70;99.90
8664;DHT22;4369;47.842;13.096;2022-07-22T03:27:05;18.80;99.90
8664;DHT22;4369;47.842;13.096;2022-07-22T03:29:32;18.70;99.90
8664;DHT22;4369;47.842;13.096;2022-07-22T03:31:59;18.70;99.90
8664;DHT22;4369;47.842;13.096;2022-07-22T03:34:26;18.70;99.90
8664;DHT22;4369;47.842;13.096;2022-07-22T03:36:55;18.60;99.90
8664;DHT22;4369;47.842;13.096;2022-07-22T03:39:22;18.60;99.90
8664;DHT22;4369;47.842;13.096;2022-07-22T03:41:50;18.60;99.90
8664;DHT22;4369;47.842;13.096;2022-07-22T03:44:17;18.60;99.90
8664;DHT22;4369;47.842;13.096;2022-07-22T03:46:43;18.60;99.90
8664;DHT22;4369;47.842;13.096;2022-07-22T03:49:10;18.60;99.90
8664;DHT22;4369;47.842;13.096;2022-07-22T03:51:37;18.70;99.90
8664;DHT22;4369;47.842;13.096;2022-07-22T03:54:05;18.70;99.90
8664;DHT22;4369;47.842;13.096;2022-07-22T03:56:33;18.70;99.90
8664;DHT22;4369;47.842;13.096;2022-07-22T03:59:00;18.70;99.90
8664;DHT22;4369;47.842;13.096;2022-07-22T04:01:27;18.80;99.90
8664;DHT22;4369;47.842;13.096;2022-07-22T04:03:54;18.80;99.90
8664;DHT22;4369;47.842;13.096;2022-07-22T04:06:21;18.90;99.90
8664;DHT22;4369;47.842;13.096;2022-07-22T04:08:47;18.90;99.90
8664;DHT22;4369;47.842;13.096;2022-07-22T04:11:16;18.90;99.90
8664;DHT22;4369;47.842;13.096;2022-07-22T04:13:43;18.90;99.90
8664;DHT22;4369;47.842;13.096;2022-07-22T04:16:09;18.90;99.90
8664;DHT22;4369;47.842;13.096;2022-07-22T04:18:36;18.90;99.90
8664;DHT22;4369;47.842;13.096;2022-07-22T04:21:03;18.80;99.90
8664;DHT22;4369;47.842;13.096;2022-07-22T04:23:30;18.90;99.90
8664;DHT22;4369;47.842;13.096;2022-07-22T04:25:57;19.00;99.90
8664;DHT22;4369;47.842;13.096;2022-07-22T04:28:25;19.00;99.90
8664;DHT22;4369;47.842;13.096;2022-07-22T04:30:52;19.00;99.90
8664;DHT22;4369;47.842;13.096;2022-07-22T04:33:19;19.00;99.90
8664;DHT22;4369;47.842;13.096;2022-07-22T04:35:46;19.00;99.90
8664;DHT22;4369;47.842;13.096;2022-07-22T04:38:12;19.00;99.90
8664;DHT22;4369;47.842;13.096;2022-07-22T04:40:39;19.00;99.90
8664;DHT22;4369;47.842;13.096;2022-07-22T04:43:06;19.10;99.90
8664;DHT22;4369;47.842;13.096;2022-07-22T04:45:34;19.10;99.90
8664;DHT22;4369;47.842;13.096;2022-07-22T04:48:01;19.10;99.90
8664;DHT22;4369;47.842;13.096;2022-07-22T04:50:29;19.10;99.90
8664;DHT22;4369;47.842;13.096;2022-07-22T04:52:55;19.20;99.90
8664;DHT22;4369;47.842;13.096;2022-07-22T04:55:22;19.30;99.90
8664;DHT22;4369;47.842;13.096;2022-07-22T04:57:49;19.20;99.90
8664;DHT22;4369;47.842;13.096;2022-07-22T05:00:16;19.30;99.90
8664;DHT22;4369;47.842;13.096;2022-07-22T05:02:44;19.40;99.90
8664;DHT22;4369;47.842;13.096;2022-07-22T05:05:11;19.40;99.90
8664;DHT22;4369;47.842;13.096;2022-07-22T05:07:38;19.50;99.90
8664;DHT22;4369;47.842;13.096;2022-07-22T05:10:05;19.50;99.90
8664;DHT22;4369;47.842;13.096;2022-07-22T05:12:33;19.60;99.90
8664;DHT22;4369;47.842;13.096;2022-07-22T05:14:59;19.50;99.90
8664;DHT22;4369;47.842;13.096;2022-07-22T05:17:26;19.60;99.90
8664;DHT22;4369;47.842;13.096;2022-07-22T05:19:55;19.60;99.90
8664;DHT22;4369;47.842;13.096;2022-07-22T05:22:22;19.70;99.90
8664;DHT22;4369;47.842;13.096;2022-07-22T05:24:48;19.80;99.90
8664;DHT22;4369;47.842;13.096;2022-07-22T05:27:15;19.90;99.90
8664;DHT22;4369;47.842;13.096;2022-07-22T05:29:42;20.00;99.90
8664;DHT22;4369;47.842;13.096;2022-07-22T05:32:09;20.10;99.90
8664;DHT22;4369;47.842;13.096;2022-07-22T05:34:36;20.30;99.90
8664;DHT22;4369;47.842;13.096;2022-07-22T05:37:04;20.40;99.90
8664;DHT22;4369;47.842;13.096;2022-07-22T05:39:31;20.60;99.90
8664;DHT22;4369;47.842;13.096;2022-07-22T05:41:58;20.60;99.90
8664;DHT22;4369;47.842;13.096;2022-07-22T05:44:25;20.80;99.90
8664;DHT22;4369;47.842;13.096;2022-07-22T05:46:52;20.90;99.90
8664;DHT22;4369;47.842;13.096;2022-07-22T05:49:19;20.90;99.90
8664;DHT22;4369;47.842;13.096;2022-07-22T05:51:47;21.00;99.90
8664;DHT22;4369;47.842;13.096;2022-07-22T05:54:15;21.00;99.90
8664;DHT22;4369;47.842;13.096;2022-07-22T05:56:43;21.10;99.90
8664;DHT22;4369;47.842;13.096;2022-07-22T05:59:10;21.10;99.90
8664;DHT22;4369;47.842;13.096;2022-07-22T06:01:37;21.10;99.90
8664;DHT22;4369;47.842;13.096;2022-07-22T06:04:04;21.20;99.90
8664;DHT22;4369;47.842;13.096;2022-07-22T06:06:31;21.20;99.90
8664;DHT22;4369;47.842;13.096;2022-07-22T06:08:58;21.20;99.90
8664;DHT22;4369;47.842;13.096;2022-07-22T06:11:26;21.20;99.90
8664;DHT22;4369;47.842;13.096;2022-07-22T06:13:53;21.30;99.90
8664;DHT22;4369;47.842;13.096;2022-07-22T06:16:20;21.30;99.90
8664;DHT22;4369;47.842;13.096;2022-07-22T06:18:47;21.40;99.90
8664;DHT22;4369;47.842;13.096;2022-07-22T06:21:14;21.40;99.90
8664;DHT22;4369;47.842;13.096;2022-07-22T06:23:41;21.50;99.90
8664;DHT22;4369;47.842;13.096;2022-07-22T06:26:08;21.60;99.90
8664;DHT22;4369;47.842;13.096;2022-07-22T06:28:36;21.60;99.90
8664;DHT22;4369;47.842;13.096;2022-07-22T06:31:03;21.60;99.90
8664;DHT22;4369;47.842;13.096;2022-07-22T06:33:30;21.70;99.90
8664;DHT22;4369;47.842;13.096;2022-07-22T06:35:58;21.80;99.90
8664;DHT22;4369;47.842;13.096;2022-07-22T06:38:25;22.00;99.90
8664;DHT22;4369;47.842;13.096;2022-07-22T06:40:52;22.00;99.90
8664;DHT22;4369;47.842;13.096;2022-07-22T06:43:19;22.10;99.90
8664;DHT22;4369;47.842;13.096;2022-07-22T06:45:49;22.20;99.90
8664;DHT22;4369;47.842;13.096;2022-07-22T06:48:18;22.20;99.90
8664;DHT22;4369;47.842;13.096;2022-07-22T06:50:45;22.30;99.90
8664;DHT22;4369;47.842;13.096;2022-07-22T06:53:12;22.30;99.90
8664;DHT22;4369;47.842;13.096;2022-07-22T06:55:39;22.40;99.90
8664;DHT22;4369;47.842;13.096;2022-07-22T06:58:05;22.40;99.90
8664;DHT22;4369;47.842;13.096;2022-07-22T07:00:32;22.40;99.90
8664;DHT22;4369;47.842;13.096;2022-07-22T07:03:01;22.40;99.90
8664;DHT22;4369;47.842;13.096;2022-07-22T07:05:28;22.50;99.90
8664;DHT22;4369;47.842;13.096;2022-07-22T07:07:55;22.60;99.90
8664;DHT22;4369;47.842;13.096;2022-07-22T07:10:22;22.60;99.90
8664;DHT22;4369;47.842;13.096;2022-07-22T07:12:49;22.80;99.90
8664;DHT22;4369;47.842;13.096;2022-07-22T07:15:16;22.90;99.90
8664;DHT22;4369;47.842;13.096;2022-07-22T07:17:43;23.00;99.90
8664;DHT22;4369;47.842;13.096;2022-07-22T07:20:11;23.00;99.90
8664;DHT22;4369;47.842;13.096;2022-07-22T07:22:38;23.20;99.90
8664;DHT22;4369;47.842;13.096;2022-07-22T07:25:07;23.30;99.90
8664;DHT22;4369;47.842;13.096;2022-07-22T07:27:34;23.30;99.90
8664;DHT22;4369;47.842;13.096;2022-07-22T07:30:03;23.40;99.90
8664;DHT22;4369;47.842;13.096;2022-07-22T07:32:30;23.40;99.90
8664;DHT22;4369;47.842;13.096;2022-07-22T07:34:57;23.40;99.90
8664;DHT22;4369;47.842;13.096;2022-07-22T07:37:25;23.50;99.90
8664;DHT22;4369;47.842;13.096;2022-07-22T07:39:52;23.60;99.90
8664;DHT22;4369;47.842;13.096;2022-07-22T07:42:19;23.70;99.90
8664;DHT22;4369;47.842;13.096;2022-07-22T07:44:46;23.70;99.90
8664;DHT22;4369;47.842;13.096;2022-07-22T07:47:12;23.90;99.90
8664;DHT22;4369;47.842;13.096;2022-07-22T07:49:43;24.00;99.90
8664;DHT22;4369;47.842;13.096;2022-07-22T07:52:09;24.20;99.90
8664;DHT22;4369;47.842;13.096;2022-07-22T07:54:39;24.30;99.90
8664;DHT22;4369;47.842;13.096;2022-07-22T07:57:06;24.30;99.90
8664;DHT22;4369;47.842;13.096;2022-07-22T07:59:34;24.40;99.90
8664;DHT22;4369;47.842;13.096;2022-07-22T08:02:01;24.30;99.90
8664;DHT22;4369;47.842;13.096;2022-07-22T08:04:27;24.30;99.90
8664;DHT22;4369;47.842;13.096;2022-07-22T08:06:54;24.50;99.90
8664;DHT22;4369;47.842;13.096;2022-07-22T08:09:22;24.60;99.90
8664;DHT22;4369;47.842;13.096;2022-07-22T08:12:04;24.70;99.90
8664;DHT22;4369;47.842;13.096;2022-07-22T08:14:31;24.80;99.90
8664;DHT22;4369;47.842;13.096;2022-07-22T08:16:59;24.90;99.90
8664;DHT22;4369;47.842;13.096;2022-07-22T08:19:25;25.10;99.90
8664;DHT22;4369;47.842;13.096;2022-07-22T08:21:52;25.20;99.90
8664;DHT22;4369;47.842;13.096;2022-07-22T08:24:19;25.30;99.90
8664;DHT22;4369;47.842;13.096;2022-07-22T08:26:46;25.40;99.90
8664;DHT22;4369;47.842;13.096;2022-07-22T08:29:14;25.40;99.90
8664;DHT22;4369;47.842;13.096;2022-07-22T08:31:41;25.50;99.90
8664;DHT22;4369;47.842;13.096;2022-07-22T08:34:08;25.60;99.90
8664;DHT22;4369;47.842;13.096;2022-07-22T08:36:35;25.70;99.90
8664;DHT22;4369;47.842;13.096;2022-07-22T08:39:03;25.80;99.90
8664;DHT22;4369;47.842;13.096;2022-07-22T08:41:34;25.90;99.90
8664;DHT22;4369;47.842;13.096;2022-07-22T08:44:03;26.10;99.90
8664;DHT22;4369;47.842;13.096;2022-07-22T08:46:31;26.10;99.90
8664;DHT22;4369;47.842;13.096;2022-07-22T08:48:58;26.20;99.90
8664;DHT22;4369;47.842;13.096;2022-07-22T08:51:26;26.30;99.90
8664;DHT22;4369;47.842;13.096;2022-07-22T08:57:17;26.50;99.90
8664;DHT22;4369;47.842;13.096;2022-07-22T08:59:54;26.60;99.90
8664;DHT22;4369;47.842;13.096;2022-07-22T09:02:23;26.70;99.90
8664;DHT22;4369;47.842;13.096;2022-07-22T09:04:56;26.60;99.90
8664;DHT22;4369;47.842;13.096;2022-07-22T09:07:25;26.70;99.90
8664;DHT22;4369;47.842;13.096;2022-07-22T09:09:52;26.80;99.90
8664;DHT22;4369;47.842;13.096;2022-07-22T09:12:19;26.90;99.90
8664;DHT22;4369;47.842;13.096;2022-07-22T09:14:49;27.00;99.90
8664;DHT22;4369;47.842;13.096;2022-07-22T09:17:25;27.10;99.90
8664;DHT22;4369;47.842;13.096;2022-07-22T09:19:52;27.20;99.90
8664;DHT22;4369;47.842;13.096;2022-07-22T09:22:39;27.20;99.90
8664;DHT22;4369;47.842;13.096;2022-07-22T09:25:21;27.30;99.90
8664;DHT22;4369;47.842;13.096;2022-07-22T09:27:50;27.50;99.90
8664;DHT22;4369;47.842;13.096;2022-07-22T09:30:19;27.60;99.90
8664;DHT22;4369;47.842;13.096;2022-07-22T09:32:48;27.60;99.90
8664;DHT22;4369;47.842;13.096;2022-07-22T09:35:15;27.60;99.90
8664;DHT22;4369;47.842;13.096;2022-07-22T09:37:52;27.80;99.90
8664;DHT22;4369;47.842;13.096;2022-07-22T09:40:22;27.90;99.90
8664;DHT22;4369;47.842;13.096;2022-07-22T09:42:50;27.90;99.90
8664;DHT22;4369;47.842;13.096;2022-07-22T09:45:19;28.00;99.90
8664;DHT22;4369;47.842;13.096;2022-07-22T09:47:48;28.00;99.90
8664;DHT22;4369;47.842;13.096;2022-07-22T09:50:17;28.10;99.90
8664;DHT22;4369;47.842;13.096;2022-07-22T09:52:46;28.10;99.90
8664;DHT22;4369;47.842;13.096;2022-07-22T09:55:15;28.20;99.90
8664;DHT22;4369;47.842;13.096;2022-07-22T09:57:43;28.40;99.90
8664;DHT22;4369;47.842;13.096;2022-07-22T10:00:10;28.40;99.90
8664;DHT22;4369;47.842;13.096;2022-07-22T10:02:41;28.50;99.90
8664;DHT22;4369;47.842;13.096;2022-07-22T10:05:13;28.60;99.90
8664;DHT22;4369;47.842;13.096;2022-07-22T10:07:42;28.70;99.90
8664;DHT22;4369;47.842;13.096;2022-07-22T10:10:11;28.80;99.90
8664;DHT22;4369;47.842;13.096;2022-07-22T10:12:38;29.00;99.90
8664;DHT22;4369;47.842;13.096;2022-07-22T10:15:07;29.10;99.90
8664;DHT22;4369;47.842;13.096;2022-07-22T10:17:35;29.20;99.90
8664;DHT22;4369;47.842;13.096;2022-07-22T10:20:04;29.30;99.90
8664;DHT22;4369;47.842;13.096;2022-07-22T10:22:47;29.40;99.90
8664;DHT22;4369;47.842;13.096;2022-07-22T10:25:15;29.50;99.90
8664;DHT22;4369;47.842;13.096;2022-07-22T10:27:44;29.50;99.90
8664;DHT22;4369;47.842;13.096;2022-07-22T10:30:12;29.70;99.90
8664;DHT22;4369;47.842;13.096;2022-07-22T10:32:40;29.70;99.90
8664;DHT22;4369;47.842;13.096;2022-07-22T10:35:23;29.80;99.90
8664;DHT22;4369;47.842;13.096;2022-07-22T10:38:00;29.90;99.90
8664;DHT22;4369;47.842;13.096;2022-07-22T10:40:29;30.10;99.90
8664;DHT22;4369;47.842;13.096;2022-07-22T10:43:08;30.10;99.90
8664;DHT22;4369;47.842;13.096;2022-07-22T10:45:38;30.20;99.90
8664;DHT22;4369;47.842;13.096;2022-07-22T10:48:07;30.30;99.90
8664;DHT22;4369;47.842;13.096;2022-07-22T10:51:06;30.50;99.90
8664;DHT22;4369;47.842;13.096;2022-07-22T10:53:46;30.60;99.90
8664;DHT22;4369;47.842;13.096;2022-07-22T10:56:24;30.70;99.10
8664;DHT22;4369;47.842;13.096;2022-07-22T10:58:59;30.80;99.90
8664;DHT22;4369;47.842;13.096;2022-07-22T11:01:33;30.90;99.90
8664;DHT22;4369;47.842;13.096;2022-07-22T11:04:15;31.00;99.00
8664;DHT22;4369;47.842;13.096;2022-07-22T11:06:43;31.10;99.90
8664;DHT22;4369;47.842;13.096;2022-07-22T11:09:12;31.40;99.90
8664;DHT22;4369;47.842;13.096;2022-07-22T11:11:41;31.40;98.70
8664;DHT22;4369;47.842;13.096;2022-07-22T11:14:13;31.40;99.00
8664;DHT22;4369;47.842;13.096;2022-07-22T11:16:41;31.40;99.90
8664;DHT22;4369;47.842;13.096;2022-07-22T11:19:08;31.60;98.80
8664;DHT22;4369;47.842;13.096;2022-07-22T11:21:35;31.80;98.50
8664;DHT22;4369;47.842;13.096;2022-07-22T11:24:05;31.90;97.60
8664;DHT22;4369;47.842;13.096;2022-07-22T11:26:37;32.00;96.00
8664;DHT22;4369;47.842;13.096;2022-07-22T11:29:06;31.90;95.90
8664;DHT22;4369;47.842;13.096;2022-07-22T11:31:34;32.10;94.00
8664;DHT22;4369;47.842;13.096;2022-07-22T11:34:06;32.30;94.70
8664;DHT22;4369;47.842;13.096;2022-07-22T11:36:34;32.30;93.90
8664;DHT22;4369;47.842;13.096;2022-07-22T11:39:01;32.40;93.10
8664;DHT22;4369;47.842;13.096;2022-07-22T11:41:29;32.40;92.30
8664;DHT22;4369;47.842;13.096;2022-07-22T11:43:58;32.60;92.50
8664;DHT22;4369;47.842;13.096;2022-07-22T11:46:26;32.80;92.60
8664;DHT22;4369;47.842;13.096;2022-07-22T11:48:54;32.90;90.80
8664;DHT22;4369;47.842;13.096;2022-07-22T11:51:28;32.90;91.40
8664;DHT22;4369;47.842;13.096;2022-07-22T11:53:55;32.90;89.30
8664;DHT22;4369;47.842;13.096;2022-07-22T11:56:22;33.00;88.60
8664;DHT22;4369;47.842;13.096;2022-07-22T11:58:50;33.10;89.50
8664;DHT22;4369;47.842;13.096;2022-07-22T12:01:22;33.30;90.30
8664;DHT22;4369;47.842;13.096;2022-07-22T12:03:50;33.30;89.20
8664;DHT22;4369;47.842;13.096;2022-07-22T12:06:19;33.30;86.30
8664;DHT22;4369;47.842;13.096;2022-07-22T12:08:48;33.40;88.80
8664;DHT22;4369;47.842;13.096;2022-07-22T12:11:16;33.40;87.30
8664;DHT22;4369;47.842;13.096;2022-07-22T12:13:47;33.50;90.50
8664;DHT22;4369;47.842;13.096;2022-07-22T12:16:23;33.60;90.20
8664;DHT22;4369;47.842;13.096;2022-07-22T12:18:56;33.60;88.70
8664;DHT22;4369;47.842;13.096;2022-07-22T12:21:24;33.60;90.30
8664;DHT22;4369;47.842;13.096;2022-07-22T12:23:56;33.80;85.50
8664;DHT22;4369;47.842;13.096;2022-07-22T12:26:54;33.80;86.80
8664;DHT22;4369;47.842;13.096;2022-07-22T12:29:23;33.80;90.20
8664;DHT22;4369;47.842;13.096;2022-07-22T12:31:53;33.80;82.50
8664;DHT22;4369;47.842;13.096;2022-07-22T12:34:35;33.80;82.30
8664;DHT22;4369;47.842;13.096;2022-07-22T12:37:17;33.80;86.80
8664;DHT22;4369;47.842;13.096;2022-07-22T12:39:58;33.70;88.40
8664;DHT22;4369;47.842;13.096;2022-07-22T12:42:27;34.00;90.40
8664;DHT22;4369;47.842;13.096;2022-07-22T12:44:59;34.20;82.90
8664;DHT22;4369;47.842;13.096;2022-07-22T12:47:46;34.40;85.10
8664;DHT22;4369;47.842;13.096;2022-07-22T12:50:25;34.50;83.00
8664;DHT22;4369;47.842;13.096;2022-07-22T12:52:55;34.30;88.40
8664;DHT22;4369;47.842;13.096;2022-07-22T12:55:23;34.30;88.50
8664;DHT22;4369;47.842;13.096;2022-07-22T12:57:50;34.20;82.80
8664;DHT22;4369;47.842;13.096;2022-07-22T13:00:21;34.40;89.30
8664;DHT22;4369;47.842;13.096;2022-07-22T13:02:51;34.70;81.80
8664;DHT22;4369;47.842;13.096;2022-07-22T13:05:18;35.00;81.50
8664;DHT22;4369;47.842;13.096;2022-07-22T13:07:45;35.00;82.50
8664;DHT22;4369;47.842;13.096;2022-07-22T13:10:13;35.20;86.20
8664;DHT22;4369;47.842;13.096;2022-07-22T13:12:41;34.90;89.20
8664;DHT22;4369;47.842;13.096;2022-07-22T13:15:09;35.00;86.90
8664;DHT22;4369;47.842;13.096;2022-07-22T13:17:36;35.40;85.60
8664;DHT22;4369;47.842;13.096;2022-07-22T13:20:06;35.50;79.60
8664;DHT22;4369;47.842;13.096;2022-07-22T13:22:33;35.90;77.80
8664;DHT22;4369;47.842;13.096;2022-07-22T13:25:00;36.20;76.80
8664;DHT22;4369;47.842;13.096;2022-07-22T13:27:27;36.40;80.90
8664;DHT22;4369;47.842;13.096;2022-07-22T13:29:54;36.20;79.30
8664;DHT22;4369;47.842;13.096;2022-07-22T13:32:21;36.30;78.30
8664;DHT22;4369;47.842;13.096;2022-07-22T13:34:48;36.70;74.30
8664;DHT22;4369;47.842;13.096;2022-07-22T13:37:17;37.30;72.60
8664;DHT22;4369;47.842;13.096;2022-07-22T13:39:43;38.00;69.90
8664;DHT22;4369;47.842;13.096;2022-07-22T13:42:13;38.40;69.40
8664;DHT22;4369;47.842;13.096;2022-07-22T13:44:43;38.80;69.40
8664;DHT22;4369;47.842;13.096;2022-07-22T13:47:09;38.70;67.50
8664;DHT22;4369;47.842;13.096;2022-07-22T13:49:36;39.30;63.90
8664;DHT22;4369;47.842;13.096;2022-07-22T13:52:04;40.20;60.70
8664;DHT22;4369;47.842;13.096;2022-07-22T13:54:32;40.80;59.60
8664;DHT22;4369;47.842;13.096;2022-07-22T13:57:00;41.50;58.30
8664;DHT22;4369;47.842;13.096;2022-07-22T13:59:33;42.60;55.40
8664;DHT22;4369;47.842;13.096;2022-07-22T14:02:01;43.60;53.80
8664;DHT22;4369;47.842;13.096;2022-07-22T14:04:28;45.00;51.70
8664;DHT22;4369;47.842;13.096;2022-07-22T14:06:55;45.90;48.50
8664;DHT22;4369;47.842;13.096;2022-07-22T14:09:22;47.70;46.40
8664;DHT22;4369;47.842;13.096;2022-07-22T14:11:50;49.00;43.10
8664;DHT22;4369;47.842;13.096;2022-07-22T14:14:17;50.20;40.60
8664;DHT22;4369;47.842;13.096;2022-07-22T14:16:44;51.10;39.40
8664;DHT22;4369;47.842;13.096;2022-07-22T14:19:13;51.30;39.30
8664;DHT22;4369;47.842;13.096;2022-07-22T14:21:42;51.40;38.60
8664;DHT22;4369;47.842;13.096;2022-07-22T14:24:09;51.90;38.00
8664;DHT22;4369;47.842;13.096;2022-07-22T14:26:36;51.50;38.50
8664;DHT22;4369;47.842;13.096;2022-07-22T14:29:05;52.30;37.00
8664;DHT22;4369;47.842;13.096;2022-07-22T14:31:33;52.30;36.20
8664;DHT22;4369;47.842;13.096;2022-07-22T14:34:00;52.70;36.00
8664;DHT22;4369;47.842;13.096;2022-07-22T14:36:27;53.30;35.60
8664;DHT22;4369;47.842;13.096;2022-07-22T14:38:54;53.10;37.30
8664;DHT22;4369;47.842;13.096;2022-07-22T14:41:21;52.30;37.30
8664;DHT22;4369;47.842;13.096;2022-07-22T14:43:48;51.60;37.20
8664;DHT22;4369;47.842;13.096;2022-07-22T14:46:16;50.70;38.00
8664;DHT22;4369;47.842;13.096;2022-07-22T14:48:43;50.70;38.90
8664;DHT22;4369;47.842;13.096;2022-07-22T14:51:11;50.60;37.90
8664;DHT22;4369;47.842;13.096;2022-07-22T14:53:38;50.70;36.90
8664;DHT22;4369;47.842;13.096;2022-07-22T14:56:05;49.90;37.10
8664;DHT22;4369;47.842;13.096;2022-07-22T14:58:31;48.80;39.30
8664;DHT22;4369;47.842;13.096;2022-07-22T15:00:58;48.90;38.60
8664;DHT22;4369;47.842;13.096;2022-07-22T15:03:27;49.00;39.90
8664;DHT22;4369;47.842;13.096;2022-07-22T15:05:54;48.70;40.40
8664;DHT22;4369;47.842;13.096;2022-07-22T15:08:21;47.80;41.60
8664;DHT22;4369;47.842;13.096;2022-07-22T15:10:48;48.20;41.90
8664;DHT22;4369;47.842;13.096;2022-07-22T15:13:15;47.40;41.70
8664;DHT22;4369;47.842;13.096;2022-07-22T15:15:42;47.20;41.50
8664;DHT22;4369;47.842;13.096;2022-07-22T15:18:09;46.10;43.10
8664;DHT22;4369;47.842;13.096;2022-07-22T15:20:37;45.90;43.10
8664;DHT22;4369;47.842;13.096;2022-07-22T15:23:04;46.00;43.00
8664;DHT22;4369;47.842;13.096;2022-07-22T15:25:31;46.40;42.70
8664;DHT22;4369;47.842;13.096;2022-07-22T15:27:58;46.00;43.40
8664;DHT22;4369;47.842;13.096;2022-07-22T15:30:26;45.30;45.10
8664;DHT22;4369;47.842;13.096;2022-07-22T15:32:53;44.80;44.80
8664;DHT22;4369;47.842;13.096;2022-07-22T15:35:19;44.50;46.00
8664;DHT22;4369;47.842;13.096;2022-07-22T15:37:47;43.80;47.80
8664;DHT22;4369;47.842;13.096;2022-07-22T15:40:14;42.30;49.80
8664;DHT22;4369;47.842;13.096;2022-07-22T15:42:43;41.90;49.40
8664;DHT22;4369;47.842;13.096;2022-07-22T15:45:10;41.50;51.30
8664;DHT22;4369;47.842;13.096;2022-07-22T15:47:37;41.10;50.20
8664;DHT22;4369;47.842;13.096;2022-07-22T15:50:05;40.70;51.30
8664;DHT22;4369;47.842;13.096;2022-07-22T15:52:32;40.30;52.40
8664;DHT22;4369;47.842;13.096;2022-07-22T15:55:00;40.10;53.70